sensor_id;sensor_type;location;lat;lon;timestamp;pressure;altitude;pressure_sealevel;temperature;humidity
42247;BME280;27913;42.722;23.268;2022-09-12T00:03:28;94699.19;;;14.10;96.25
42247;BME280;27913;42.722;23.268;2022-09-12T00:05:53;94573.59;;;13.24;96.64
42247;BME280;27913;42.722;23.268;2022-09-12T00:08:19;94627.44;;;13.55;96.25
42247;BME280;27913;42.722;23.268;2022-09-12T00:10:44;94642.50;;;13.55;96.47
42247;BME280;27913;42.722;23.268;2022-09-12T00:13:10;94619.00;;;13.39;96.19
42247;BME280;27913;42.722;23.268;2022-09-12T00:15:41;94611.50;;;13.36;96.84
42247;BME280;27913;42.722;23.268;2022-09-12T00:18:08;94833.38;;;14.72;96.51
42247;BME280;27913;42.722;23.268;2022-09-12T00:20:34;94724.94;;;13.96;96.67
42247;BME280;27913;42.722;23.268;2022-09-12T00:23:00;94767.63;;;14.25;96.26
42247;BME280;27913;42.722;23.268;2022-09-12T00:25:26;94711.00;;;13.82;96.25
42247;BME280;27913;42.722;23.268;2022-09-12T00:27:55;94666.88;;;13.50;96.29
42247;BME280;27913;42.722;23.268;2022-09-12T00:30:20;94687.31;;;13.68;95.86
42247;BME280;27913;42.722;23.268;2022-09-12T00:32:45;94864.97;;;14.67;96.11
42247;BME280;27913;42.722;23.268;2022-09-12T00:35:11;94664.66;;;13.53;95.31
42247;BME280;27913;42.722;23.268;2022-09-12T00:37:37;94862.31;;;14.67;95.69
42247;BME280;27913;42.722;23.268;2022-09-12T00:40:02;94854.53;;;14.72;95.46
42247;BME280;27913;42.722;23.268;2022-09-12T00:42:28;94793.38;;;14.36;95.16
42247;BME280;27913;42.722;23.268;2022-09-12T00:44:53;94815.25;;;14.51;94.26
42247;BME280;27913;42.722;23.268;2022-09-12T00:47:29;94836.72;;;14.61;94.73
42247;BME280;27913;42.722;23.268;2022-09-12T00:50:17;94773.88;;;14.31;94.60
42247;BME280;27913;42.722;23.268;2022-09-12T00:52:57;94745.13;;;14.16;94.42
42247;BME280;27913;42.722;23.268;2022-09-12T00:55:28;94845.53;;;14.80;94.07
42247;BME280;27913;42.722;23.268;2022-09-12T00:58:08;94837.34;;;14.63;94.54
42247;BME280;27913;42.722;23.268;2022-09-12T01:00:35;94770.63;;;14.35;94.33
42247;BME280;27913;42.722;23.268;2022-09-12T01:03:05;94843.53;;;14.76;93.72
42247;BME280;27913;42.722;23.268;2022-09-12T01:05:34;94782.25;;;14.28;93.74
42247;BME280;27913;42.722;23.268;2022-09-12T01:08:03;94837.56;;;14.61;94.52
42247;BME280;27913;42.722;23.268;2022-09-12T01:10:29;94753.50;;;14.12;94.46
42247;BME280;27913;42.722;23.268;2022-09-12T01:12:56;94582.50;;;12.97;93.90
42247;BME280;27913;42.722;23.268;2022-09-12T01:15:21;94791.78;;;14.29;94.30
42247;BME280;27913;42.722;23.268;2022-09-12T01:29:13;94725.19;;;13.87;93.47
42247;BME280;27913;42.722;23.268;2022-09-12T01:31:56;94782.91;;;14.23;94.08
42247;BME280;27913;42.722;23.268;2022-09-12T01:40:11;94844.69;;;14.35;94.11
42247;BME280;27913;42.722;23.268;2022-09-12T01:42:44;94849.38;;;14.33;93.14
42247;BME280;27913;42.722;23.268;2022-09-12T01:47:46;94772.94;;;13.93;93.64
42247;BME280;27913;42.722;23.268;2022-09-12T01:50:26;94776.81;;;13.90;93.26
42247;BME280;27913;42.722;23.268;2022-09-12T01:53:16;94837.19;;;14.25;93.78
42247;BME280;27913;42.722;23.268;2022-09-12T01:55:48;94821.00;;;14.15;93.76
42247;BME280;27913;42.722;23.268;2022-09-12T01:58:23;94822.16;;;14.26;93.11
42247;BME280;27913;42.722;23.268;2022-09-12T02:01:08;94837.78;;;14.28;92.93
42247;BME280;27913;42.722;23.268;2022-09-12T02:03:48;94802.84;;;13.93;92.98
42247;BME280;27913;42.722;23.268;2022-09-12T02:06:26;94843.75;;;14.16;93.40
42247;BME280;27913;42.722;23.268;2022-09-12T02:09:04;94837.94;;;14.07;93.03
42247;BME280;27913;42.722;23.268;2022-09-12T02:11:33;94827.75;;;14.04;93.19
42247;BME280;27913;42.722;23.268;2022-09-12T02:14:07;94783.06;;;13.63;93.43
42247;BME280;27913;42.722;23.268;2022-09-12T02:16:43;94729.31;;;13.37;93.30
42247;BME280;27913;42.722;23.268;2022-09-12T02:19:23;94834.31;;;14.01;92.43
42247;BME280;27913;42.722;23.268;2022-09-12T02:21:52;94578.53;;;12.42;92.21
42247;BME280;27913;42.722;23.268;2022-09-12T02:24:21;94833.69;;;13.99;91.98
42247;BME280;27913;42.722;23.268;2022-09-12T02:26:56;94829.22;;;14.00;92.13
42247;BME280;27913;42.722;23.268;2022-09-12T02:29:22;94821.13;;;13.95;91.69
42247;BME280;27913;42.722;23.268;2022-09-12T02:32:23;94820.75;;;13.91;92.13
42247;BME280;27913;42.722;23.268;2022-09-12T02:35:06;94726.28;;;13.34;91.89
42247;BME280;27913;42.722;23.268;2022-09-12T02:40:22;94709.53;;;13.14;92.33
42247;BME280;27913;42.722;23.268;2022-09-12T02:42:48;94637.28;;;12.63;92.13
42247;BME280;27913;42.722;23.268;2022-09-12T02:45:15;94825.28;;;13.77;92.17
42247;BME280;27913;42.722;23.268;2022-09-12T02:47:57;94823.25;;;13.72;92.32
42247;BME280;27913;42.722;23.268;2022-09-12T02:50:22;94828.94;;;13.76;92.13
42247;BME280;27913;42.722;23.268;2022-09-12T02:52:49;94831.78;;;13.74;92.20
42247;BME280;27913;42.722;23.268;2022-09-12T02:55:15;94656.94;;;12.67;92.14
42247;BME280;27913;42.722;23.268;2022-09-12T02:57:41;94773.81;;;13.34;92.07
42247;BME280;27913;42.722;23.268;2022-09-12T03:00:07;94750.53;;;13.24;91.91
42247;BME280;27913;42.722;23.268;2022-09-12T03:05:30;94851.50;;;13.79;91.75
42247;BME280;27913;42.722;23.268;2022-09-12T03:08:07;94792.66;;;13.51;92.08
42247;BME280;27913;42.722;23.268;2022-09-12T03:24:34;94780.50;;;13.43;92.37
42247;BME280;27913;42.722;23.268;2022-09-12T03:27:09;94785.63;;;13.31;92.64
42247;BME280;27913;42.722;23.268;2022-09-12T03:29:38;94623.19;;;12.23;93.13
42247;BME280;27913;42.722;23.268;2022-09-12T03:32:04;94851.56;;;13.51;93.68
42247;BME280;27913;42.722;23.268;2022-09-12T03:34:30;94832.91;;;13.46;93.71
42247;BME280;27913;42.722;23.268;2022-09-12T03:36:55;94824.59;;;13.43;94.10
42247;BME280;27913;42.722;23.268;2022-09-12T03:39:22;94748.19;;;12.95;94.09
42247;BME280;27913;42.722;23.268;2022-09-12T03:41:49;94670.41;;;12.45;93.99
42247;BME280;27913;42.722;23.268;2022-09-12T03:44:15;94844.28;;;13.47;94.45
42247;BME280;27913;42.722;23.268;2022-09-12T03:46:41;94833.50;;;13.48;94.71
42247;BME280;27913;42.722;23.268;2022-09-12T03:49:06;94819.16;;;13.31;94.69
42247;BME280;27913;42.722;23.268;2022-09-12T03:51:32;94837.56;;;13.44;94.66
42247;BME280;27913;42.722;23.268;2022-09-12T03:53:57;94836.78;;;13.44;94.84
42247;BME280;27913;42.722;23.268;2022-09-12T03:56:23;94573.56;;;11.79;94.43
42247;BME280;27913;42.722;23.268;2022-09-12T03:58:49;94746.16;;;12.97;94.12
42247;BME280;27913;42.722;23.268;2022-09-12T04:01:17;94605.75;;;12.08;93.77
42247;BME280;27913;42.722;23.268;2022-09-12T04:03:45;94848.16;;;13.51;93.51
42247;BME280;27913;42.722;23.268;2022-09-12T04:06:13;94843.25;;;13.48;93.51
42247;BME280;27913;42.722;23.268;2022-09-12T04:08:40;94818.09;;;13.45;93.39
42247;BME280;27913;42.722;23.268;2022-09-12T04:11:09;94845.72;;;13.56;92.77
42247;BME280;27913;42.722;23.268;2022-09-12T04:13:36;94801.31;;;13.19;92.85
42247;BME280;27913;42.722;23.268;2022-09-12T04:16:02;94826.81;;;13.39;93.39
42247;BME280;27913;42.722;23.268;2022-09-12T04:18:28;94846.09;;;13.46;93.26
42247;BME280;27913;42.722;23.268;2022-09-12T04:20:54;94607.81;;;12.00;93.07
42247;BME280;27913;42.722;23.268;2022-09-12T04:23:19;94867.84;;;13.55;93.34
42247;BME280;27913;42.722;23.268;2022-09-12T04:25:55;94684.19;;;12.54;92.92
42247;BME280;27913;42.722;23.268;2022-09-12T04:28:22;94838.19;;;13.46;92.67
42247;BME280;27913;42.722;23.268;2022-09-12T04:30:48;94616.31;;;12.22;91.83
42247;BME280;27913;42.722;23.268;2022-09-12T04:33:14;94867.81;;;13.69;91.97
42247;BME280;27913;42.722;23.268;2022-09-12T04:35:39;94863.72;;;13.73;92.44
42247;BME280;27913;42.722;23.268;2022-09-12T04:38:06;94864.50;;;13.80;92.02
42247;BME280;27913;42.722;23.268;2022-09-12T04:40:31;94881.75;;;13.83;91.98
42247;BME280;27913;42.722;23.268;2022-09-12T04:42:57;94844.25;;;13.60;91.90
42247;BME280;27913;42.722;23.268;2022-09-12T04:45:23;94872.25;;;13.75;91.85
42247;BME280;27913;42.722;23.268;2022-09-12T04:47:48;94875.47;;;13.84;91.98
42247;BME280;27913;42.722;23.268;2022-09-12T04:50:14;94647.66;;;12.44;91.65
42247;BME280;27913;42.722;23.268;2022-09-12T04:52:40;94868.56;;;13.76;91.43
42247;BME280;27913;42.722;23.268;2022-09-12T04:55:06;94823.13;;;13.60;91.52
42247;BME280;27913;42.722;23.268;2022-09-12T04:57:33;94874.88;;;13.82;91.85
42247;BME280;27913;42.722;23.268;2022-09-12T04:59:59;94873.81;;;13.83;91.94
42247;BME280;27913;42.722;23.268;2022-09-12T05:02:25;94880.97;;;13.82;91.90
42247;BME280;27913;42.722;23.268;2022-09-12T05:04:50;94639.56;;;12.39;91.61
42247;BME280;27913;42.722;23.268;2022-09-12T05:07:20;94775.53;;;13.14;91.90
42247;BME280;27913;42.722;23.268;2022-09-12T05:09:45;94792.13;;;13.28;92.35
42247;BME280;27913;42.722;23.268;2022-09-12T05:12:11;94876.09;;;13.79;92.34
42247;BME280;27913;42.722;23.268;2022-09-12T05:14:36;94677.44;;;12.58;91.72
42247;BME280;27913;42.722;23.268;2022-09-12T05:17:03;94874.22;;;13.86;91.42
42247;BME280;27913;42.722;23.268;2022-09-12T05:19:30;94876.03;;;13.93;90.98
42247;BME280;27913;42.722;23.268;2022-09-12T05:21:57;94875.59;;;13.96;91.14
42247;BME280;27913;42.722;23.268;2022-09-12T05:24:22;94860.81;;;13.81;90.19
42247;BME280;27913;42.722;23.268;2022-09-12T05:26:48;94876.44;;;13.96;90.44
42247;BME280;27913;42.722;23.268;2022-09-12T05:29:14;94819.47;;;13.61;90.41
42247;BME280;27913;42.722;23.268;2022-09-12T05:31:40;94874.19;;;14.00;90.47
42247;BME280;27913;42.722;23.268;2022-09-12T05:34:07;94864.59;;;13.99;90.70
42247;BME280;27913;42.722;23.268;2022-09-12T05:36:33;94878.22;;;14.03;90.30
42247;BME280;27913;42.722;23.268;2022-09-12T05:38:59;94828.31;;;13.81;90.08
42247;BME280;27913;42.722;23.268;2022-09-12T05:41:28;94834.63;;;13.80;89.09
42247;BME280;27913;42.722;23.268;2022-09-12T05:43:59;94877.94;;;14.18;89.09
42247;BME280;27913;42.722;23.268;2022-09-12T05:46:27;94876.47;;;14.22;88.19
42247;BME280;27913;42.722;23.268;2022-09-12T05:48:53;94863.03;;;14.23;88.74
42247;BME280;27913;42.722;23.268;2022-09-12T05:51:32;94872.34;;;14.33;88.03
42247;BME280;27913;42.722;23.268;2022-09-12T05:53:59;94833.53;;;14.27;87.92
42247;BME280;27913;42.722;23.268;2022-09-12T05:56:27;94849.03;;;14.48;86.90
42247;BME280;27913;42.722;23.268;2022-09-12T05:59:05;94812.34;;;14.33;87.09
42247;BME280;27913;42.722;23.268;2022-09-12T06:01:33;94854.59;;;14.66;86.06
42247;BME280;27913;42.722;23.268;2022-09-12T06:04:02;94858.66;;;14.68;86.00
42247;BME280;27913;42.722;23.268;2022-09-12T06:06:30;94854.75;;;14.71;86.12
42247;BME280;27913;42.722;23.268;2022-09-12T06:09:00;94822.69;;;14.60;86.64
42247;BME280;27913;42.722;23.268;2022-09-12T06:11:28;94847.78;;;14.77;86.09
42247;BME280;27913;42.722;23.268;2022-09-12T06:13:55;94771.63;;;14.34;86.70
42247;BME280;27913;42.722;23.268;2022-09-12T06:16:23;94715.06;;;14.10;86.49
42247;BME280;27913;42.722;23.268;2022-09-12T06:19:17;94748.84;;;14.33;85.99
42247;BME280;27913;42.722;23.268;2022-09-12T06:21:43;94859.88;;;14.98;86.57
42247;BME280;27913;42.722;23.268;2022-09-12T06:24:09;94857.44;;;14.96;86.22
42247;BME280;27913;42.722;23.268;2022-09-12T06:26:35;94861.69;;;14.97;86.23
42247;BME280;27913;42.722;23.268;2022-09-12T06:29:01;94764.16;;;14.50;86.75
42247;BME280;27913;42.722;23.268;2022-09-12T06:33:40;94625.41;;;13.57;85.99
42247;BME280;27913;42.722;23.268;2022-09-12T06:36:10;94753.03;;;14.41;86.37
42247;BME280;27913;42.722;23.268;2022-09-12T06:38:35;94720.13;;;14.11;85.25
42247;BME280;27913;42.722;23.268;2022-09-12T06:41:05;94840.56;;;14.91;85.12
42247;BME280;27913;42.722;23.268;2022-09-12T06:43:33;94671.09;;;13.90;84.82
42247;BME280;27913;42.722;23.268;2022-09-12T06:45:58;94777.31;;;14.57;84.61
42247;BME280;27913;42.722;23.268;2022-09-12T06:48:24;94686.03;;;14.03;84.91
42247;BME280;27913;42.722;23.268;2022-09-12T06:51:01;94767.50;;;14.64;84.68
42247;BME280;27913;42.722;23.268;2022-09-12T06:53:28;94690.19;;;14.18;83.85
42247;BME280;27913;42.722;23.268;2022-09-12T06:56:05;94784.81;;;14.85;83.40
42247;BME280;27913;42.722;23.268;2022-09-12T06:58:32;94682.25;;;14.18;83.79
42247;BME280;27913;42.722;23.268;2022-09-12T07:01:12;94733.94;;;14.39;84.01
42247;BME280;27913;42.722;23.268;2022-09-12T07:03:39;94798.59;;;14.94;85.16
42247;BME280;27913;42.722;23.268;2022-09-12T07:06:07;94721.81;;;14.50;82.94
42247;BME280;27913;42.722;23.268;2022-09-12T07:08:33;94729.44;;;14.65;81.50
42247;BME280;27913;42.722;23.268;2022-09-12T07:11:16;94732.16;;;14.77;81.65
42247;BME280;27913;42.722;23.268;2022-09-12T07:13:44;94673.19;;;14.51;80.89
42247;BME280;27913;42.722;23.268;2022-09-12T07:16:10;94875.41;;;15.88;79.97
42247;BME280;27913;42.722;23.268;2022-09-12T07:18:37;94727.34;;;14.93;78.39
42247;BME280;27913;42.722;23.268;2022-09-12T07:21:05;94804.84;;;15.38;78.92
42247;BME280;27913;42.722;23.268;2022-09-12T07:23:31;94889.53;;;16.01;79.13
42247;BME280;27913;42.722;23.268;2022-09-12T07:25:58;94883.25;;;16.14;79.42
42247;BME280;27913;42.722;23.268;2022-09-12T07:28:27;94896.75;;;16.12;76.70
42247;BME280;27913;42.722;23.268;2022-09-12T07:30:54;94893.22;;;16.00;75.86
42247;BME280;27913;42.722;23.268;2022-09-12T07:33:21;94786.97;;;15.33;75.54
42247;BME280;27913;42.722;23.268;2022-09-12T07:35:47;94809.53;;;15.54;75.18
42247;BME280;27913;42.722;23.268;2022-09-12T07:38:14;94901.59;;;15.97;74.54
42247;BME280;27913;42.722;23.268;2022-09-12T07:40:40;94892.59;;;15.98;74.31
42247;BME280;27913;42.722;23.268;2022-09-12T07:43:05;94892.78;;;16.03;73.79
42247;BME280;27913;42.722;23.268;2022-09-12T07:45:31;94888.28;;;16.03;73.69
42247;BME280;27913;42.722;23.268;2022-09-12T07:47:56;94656.94;;;14.66;73.22
42247;BME280;27913;42.722;23.268;2022-09-12T07:50:21;94751.72;;;15.32;73.51
42247;BME280;27913;42.722;23.268;2022-09-12T07:52:47;94835.03;;;15.86;72.41
42247;BME280;27913;42.722;23.268;2022-09-12T07:55:13;94827.00;;;15.93;71.94
42247;BME280;27913;42.722;23.268;2022-09-12T07:57:39;94845.19;;;15.89;71.92
42247;BME280;27913;42.722;23.268;2022-09-12T08:00:05;94848.22;;;15.93;72.13
42247;BME280;27913;42.722;23.268;2022-09-12T08:02:31;94901.53;;;16.34;70.96
42247;BME280;27913;42.722;23.268;2022-09-12T08:04:57;94840.84;;;15.95;70.66
42247;BME280;27913;42.722;23.268;2022-09-12T08:07:22;94902.72;;;16.38;72.27
42247;BME280;27913;42.722;23.268;2022-09-12T08:09:48;94895.34;;;16.40;71.77
42247;BME280;27913;42.722;23.268;2022-09-12T08:12:14;94881.47;;;16.38;72.02
42247;BME280;27913;42.722;23.268;2022-09-12T08:14:40;94673.19;;;15.07;73.04
42247;BME280;27913;42.722;23.268;2022-09-12T08:17:06;94884.16;;;16.50;73.25
42247;BME280;27913;42.722;23.268;2022-09-12T08:19:31;94886.94;;;16.56;72.88
42247;BME280;27913;42.722;23.268;2022-09-12T08:21:57;94884.41;;;16.61;71.88
42247;BME280;27913;42.722;23.268;2022-09-12T08:24:22;94794.91;;;16.13;71.51
42247;BME280;27913;42.722;23.268;2022-09-12T08:26:49;94895.84;;;16.61;71.30
42247;BME280;27913;42.722;23.268;2022-09-12T08:29:14;94768.44;;;15.94;71.50
42247;BME280;27913;42.722;23.268;2022-09-12T08:31:40;94882.94;;;16.65;71.93
42247;BME280;27913;42.722;23.268;2022-09-12T08:34:07;94852.91;;;16.52;71.55
42247;BME280;27913;42.722;23.268;2022-09-12T08:36:33;94876.13;;;16.69;70.23
42247;BME280;27913;42.722;23.268;2022-09-12T08:39:02;94783.28;;;16.14;71.02
42247;BME280;27913;42.722;23.268;2022-09-12T08:47:31;94738.53;;;16.30;68.83
42247;BME280;27913;42.722;23.268;2022-09-12T08:55:05;94855.41;;;17.14;65.67
42247;BME280;27913;42.722;23.268;2022-09-12T08:57:38;94875.81;;;17.13;65.45
42247;BME280;27913;42.722;23.268;2022-09-12T09:00:11;94854.44;;;17.08;65.38
42247;BME280;27913;42.722;23.268;2022-09-12T09:05:17;94791.28;;;16.50;66.00
42247;BME280;27913;42.722;23.268;2022-09-12T09:16:29;94817.16;;;16.55;67.36
42247;BME280;27913;42.722;23.268;2022-09-12T09:19:02;94867.72;;;16.84;67.11
42247;BME280;27913;42.722;23.268;2022-09-12T09:21:34;94841.94;;;16.61;67.13
42247;BME280;27913;42.722;23.268;2022-09-12T09:24:04;94863.00;;;16.86;67.37
42247;BME280;27913;42.722;23.268;2022-09-12T09:29:18;94857.22;;;17.01;67.29
42247;BME280;27913;42.722;23.268;2022-09-12T09:31:48;94775.47;;;16.56;67.33
42247;BME280;27913;42.722;23.268;2022-09-12T09:34:20;94805.72;;;16.78;66.70
42247;BME280;27913;42.722;23.268;2022-09-12T09:36:51;94821.19;;;17.06;66.79
42247;BME280;27913;42.722;23.268;2022-09-12T09:39:35;94851.91;;;17.25;65.72
42247;BME280;27913;42.722;23.268;2022-09-12T09:45:15;94855.50;;;17.31;65.71
42247;BME280;27913;42.722;23.268;2022-09-12T09:50:35;94846.50;;;17.32;66.34
42247;BME280;27913;42.722;23.268;2022-09-12T09:53:01;94851.31;;;17.47;66.19
42247;BME280;27913;42.722;23.268;2022-09-12T09:55:32;94855.47;;;17.55;67.13
42247;BME280;27913;42.722;23.268;2022-09-12T09:58:03;94778.91;;;17.28;64.85
42247;BME280;27913;42.722;23.268;2022-09-12T10:00:36;94844.50;;;17.81;63.99
42247;BME280;27913;42.722;23.268;2022-09-12T10:03:25;94708.94;;;17.10;62.05
42247;BME280;27913;42.722;23.268;2022-09-12T10:05:56;94766.16;;;17.42;59.97
42247;BME280;27913;42.722;23.268;2022-09-12T10:08:29;94795.31;;;17.66;60.18
42247;BME280;27913;42.722;23.268;2022-09-12T10:11:02;94843.44;;;17.94;62.61
42247;BME280;27913;42.722;23.268;2022-09-12T10:13:40;94786.06;;;17.69;62.69
42247;BME280;27913;42.722;23.268;2022-09-12T10:16:17;94841.22;;;18.03;63.70
42247;BME280;27913;42.722;23.268;2022-09-12T10:18:43;94782.16;;;17.59;63.56
42247;BME280;27913;42.722;23.268;2022-09-12T10:21:38;94828.22;;;17.77;63.57
42247;BME280;27913;42.722;23.268;2022-09-12T10:24:28;94795.09;;;17.56;63.29
42247;BME280;27913;42.722;23.268;2022-09-12T10:26:56;94828.75;;;17.91;62.27
42247;BME280;27913;42.722;23.268;2022-09-12T10:29:30;94826.50;;;18.00;60.19
42247;BME280;27913;42.722;23.268;2022-09-12T10:32:00;94777.03;;;17.70;58.43
42247;BME280;27913;42.722;23.268;2022-09-12T10:37:02;94829.13;;;18.12;58.44
42247;BME280;27913;42.722;23.268;2022-09-12T10:39:29;94846.63;;;18.08;56.44
42247;BME280;27913;42.722;23.268;2022-09-12T10:41:55;94622.75;;;16.77;56.69
42247;BME280;27913;42.722;23.268;2022-09-12T10:44:29;94840.88;;;18.28;56.81
42247;BME280;27913;42.722;23.268;2022-09-12T10:46:56;94778.34;;;17.84;57.78
42247;BME280;27913;42.722;23.268;2022-09-12T10:49:27;94822.41;;;18.21;58.54
42247;BME280;27913;42.722;23.268;2022-09-12T10:51:54;94824.25;;;18.21;59.12
42247;BME280;27913;42.722;23.268;2022-09-12T10:54:23;94837.41;;;18.45;58.99
42247;BME280;27913;42.722;23.268;2022-09-12T10:56:59;94860.16;;;18.35;57.25
42247;BME280;27913;42.722;23.268;2022-09-12T11:02:23;94791.28;;;18.10;58.87
42247;BME280;27913;42.722;23.268;2022-09-12T11:05:02;94732.53;;;17.65;59.21
42247;BME280;27913;42.722;23.268;2022-09-12T11:10:27;94831.75;;;18.24;59.27
42247;BME280;27913;42.722;23.268;2022-09-12T11:18:56;94829.38;;;18.57;58.06
42247;BME280;27913;42.722;23.268;2022-09-12T11:26:59;94787.28;;;18.07;58.44
42247;BME280;27913;42.722;23.268;2022-09-12T11:30:02;94725.72;;;17.69;58.20
42247;BME280;27913;42.722;23.268;2022-09-12T11:33:20;94780.84;;;18.20;57.85
42247;BME280;27913;42.722;23.268;2022-09-12T11:35:47;94822.16;;;18.23;57.77
42247;BME280;27913;42.722;23.268;2022-09-12T11:41:37;94798.84;;;18.01;57.67
42247;BME280;27913;42.722;23.268;2022-09-12T11:43:55;94806.44;;;18.21;55.90
42247;BME280;27913;42.722;23.268;2022-09-12T11:46:37;94841.03;;;18.39;55.30
42247;BME280;27913;42.722;23.268;2022-09-12T11:54:35;94775.22;;;18.34;55.62
42247;BME280;27913;42.722;23.268;2022-09-12T12:02:30;94837.81;;;18.88;52.18
42247;BME280;27913;42.722;23.268;2022-09-12T12:07:57;94822.47;;;19.13;53.88
42247;BME280;27913;42.722;23.268;2022-09-12T12:10:28;94781.50;;;18.79;50.44
42247;BME280;27913;42.722;23.268;2022-09-12T12:12:58;94754.16;;;18.50;50.93
42247;BME280;27913;42.722;23.268;2022-09-12T12:15:26;94697.56;;;18.37;50.88
42247;BME280;27913;42.722;23.268;2022-09-12T12:18:23;94690.13;;;18.39;50.64
42247;BME280;27913;42.722;23.268;2022-09-12T12:20:49;94800.91;;;18.97;52.26
42247;BME280;27913;42.722;23.268;2022-09-12T12:23:26;94752.53;;;18.66;53.93
42247;BME280;27913;42.722;23.268;2022-09-12T12:25:54;94762.09;;;18.84;53.85
42247;BME280;27913;42.722;23.268;2022-09-12T12:31:08;94769.19;;;19.13;52.92
42247;BME280;27913;42.722;23.268;2022-09-12T12:36:27;94825.72;;;19.37;52.30
42247;BME280;27913;42.722;23.268;2022-09-12T12:38:53;94707.53;;;18.87;52.66
42247;BME280;27913;42.722;23.268;2022-09-12T12:43:48;94777.13;;;18.90;53.68
42247;BME280;27913;42.722;23.268;2022-09-12T12:46:15;94808.91;;;18.97;54.80
42247;BME280;27913;42.722;23.268;2022-09-12T12:48:54;94840.97;;;19.02;56.21
42247;BME280;27913;42.722;23.268;2022-09-12T12:51:42;94752.47;;;18.61;56.40
42247;BME280;27913;42.722;23.268;2022-09-12T12:57:14;94792.00;;;18.52;56.10
42247;BME280;27913;42.722;23.268;2022-09-12T13:03:00;94726.09;;;18.25;55.98
42247;BME280;27913;42.722;23.268;2022-09-12T13:05:28;94811.09;;;19.00;55.32
42247;BME280;27913;42.722;23.268;2022-09-12T13:16:00;94803.63;;;18.80;55.59
42247;BME280;27913;42.722;23.268;2022-09-12T13:18:44;94802.78;;;18.97;53.01
42247;BME280;27913;42.722;23.268;2022-09-12T13:21:18;94817.72;;;19.15;49.66
42247;BME280;27913;42.722;23.268;2022-09-12T13:23:45;94671.25;;;18.41;50.45
42247;BME280;27913;42.722;23.268;2022-09-12T13:26:25;94816.47;;;19.45;49.87
42247;BME280;27913;42.722;23.268;2022-09-12T13:29:18;94738.41;;;19.05;50.72
42247;BME280;27913;42.722;23.268;2022-09-12T13:31:51;94723.72;;;19.02;51.62
42247;BME280;27913;42.722;23.268;2022-09-12T13:34:24;94809.09;;;19.52;51.97
42247;BME280;27913;42.722;23.268;2022-09-12T13:37:13;94800.72;;;19.21;53.36
42247;BME280;27913;42.722;23.268;2022-09-12T13:39:47;94754.69;;;18.86;54.41
42247;BME280;27913;42.722;23.268;2022-09-12T13:45:06;94635.94;;;17.77;54.13
42247;BME280;27913;42.722;23.268;2022-09-12T13:49:58;94824.59;;;18.93;53.15
42247;BME280;27913;42.722;23.268;2022-09-12T13:52:28;94806.75;;;19.11;52.79
42247;BME280;27913;42.722;23.268;2022-09-12T13:54:56;94718.66;;;18.83;51.94
42247;BME280;27913;42.722;23.268;2022-09-12T13:57:41;94807.44;;;19.46;51.08
42247;BME280;27913;42.722;23.268;2022-09-12T14:00:15;94670.25;;;18.87;50.73
42247;BME280;27913;42.722;23.268;2022-09-12T14:02:45;94801.63;;;19.77;50.02
42247;BME280;27913;42.722;23.268;2022-09-12T14:05:24;94722.88;;;19.19;50.13
42247;BME280;27913;42.722;23.268;2022-09-12T14:10:27;94804.75;;;19.68;51.07
42247;BME280;27913;42.722;23.268;2022-09-12T14:12:55;94774.31;;;19.19;52.10
42247;BME280;27913;42.722;23.268;2022-09-12T14:15:24;94794.91;;;19.24;53.70
42247;BME280;27913;42.722;23.268;2022-09-12T14:18:02;94766.09;;;18.64;54.48
42247;BME280;27913;42.722;23.268;2022-09-12T14:20:30;94799.56;;;18.77;54.80
42247;BME280;27913;42.722;23.268;2022-09-12T14:23:01;94662.16;;;17.85;54.83
42247;BME280;27913;42.722;23.268;2022-09-12T14:25:33;94758.69;;;18.49;54.21
42247;BME280;27913;42.722;23.268;2022-09-12T14:28:01;94805.78;;;18.83;54.89
42247;BME280;27913;42.722;23.268;2022-09-12T14:30:33;94595.06;;;17.48;55.43
42247;BME280;27913;42.722;23.268;2022-09-12T14:35:29;94792.16;;;18.45;54.55
42247;BME280;27913;42.722;23.268;2022-09-12T14:38:07;94739.78;;;17.99;55.28
42247;BME280;27913;42.722;23.268;2022-09-12T14:40:42;94750.19;;;18.01;55.28
42247;BME280;27913;42.722;23.268;2022-09-12T14:43:25;94763.81;;;18.04;55.78
42247;BME280;27913;42.722;23.268;2022-09-12T14:45:57;94823.94;;;18.34;56.45
42247;BME280;27913;42.722;23.268;2022-09-12T14:48:29;94706.47;;;17.50;57.01
42247;BME280;27913;42.722;23.268;2022-09-12T14:50:56;94773.69;;;17.92;57.32
42247;BME280;27913;42.722;23.268;2022-09-12T14:53:31;94769.16;;;17.92;57.60
42247;BME280;27913;42.722;23.268;2022-09-12T14:56:05;94808.84;;;18.23;57.96
42247;BME280;27913;42.722;23.268;2022-09-12T14:58:32;94818.53;;;18.29;58.50
42247;BME280;27913;42.722;23.268;2022-09-12T15:03:49;94817.34;;;18.08;59.47
42247;BME280;27913;42.722;23.268;2022-09-12T15:06:28;94758.41;;;17.70;59.99
42247;BME280;27913;42.722;23.268;2022-09-12T15:08:56;94670.00;;;17.16;59.91
42247;BME280;27913;42.722;23.268;2022-09-12T15:11:23;94625.53;;;16.70;60.97
42247;BME280;27913;42.722;23.268;2022-09-12T15:13:48;94691.34;;;17.21;61.08
42247;BME280;27913;42.722;23.268;2022-09-12T15:16:14;94702.66;;;17.29;61.49
42247;BME280;27913;42.722;23.268;2022-09-12T15:18:40;94814.38;;;17.92;61.60
42247;BME280;27913;42.722;23.268;2022-09-12T15:21:09;94814.19;;;17.94;62.07
42247;BME280;27913;42.722;23.268;2022-09-12T15:23:43;94804.56;;;17.93;62.51
42247;BME280;27913;42.722;23.268;2022-09-12T15:26:12;94758.47;;;17.58;61.30
42247;BME280;27913;42.722;23.268;2022-09-12T15:28:38;94810.84;;;17.86;60.70
42247;BME280;27913;42.722;23.268;2022-09-12T15:33:36;94815.31;;;17.98;61.24
42247;BME280;27913;42.722;23.268;2022-09-12T15:36:02;94764.13;;;17.61;60.67